Time;durP1;ratioP1;P1;durP2;ratioP2;P2;SDS_P1;SDS_P2;PMS_P1;PMS_P2;Temp;Humidity;BMP_temperature;BMP_pressure;BME280_temperature;BME280_humidity;BME280_pressure;Samples;Min_cycle;Max_cycle;Signal;HPM_P1;HPM_P2
2022/03/07 00:02:14;;;;;;;16.10;7.90;;;;;;;0.10;62.01;100172.72;6336731;27;20455;-71
2022/03/07 00:05:15;;;;;;;19.63;8.77;;;;;;;0.22;61.78;100187.09;6371611;27;20047;-71
2022/03/07 00:08:16;;;;;;;16.90;8.75;;;;;;;0.11;62.22;100179.56;6372258;27;20074;-72
2022/03/07 00:11:18;;;;;;;11.38;7.30;;;;;;;0.11;62.57;100179.56;6372384;27;20043;-71
2022/03/07 00:14:19;;;;;;;15.10;7.78;;;;;;;0.02;62.86;100188.25;6354500;27;20123;-71
2022/03/07 00:17:20;;;;;;;14.43;6.60;;;;;;;0.00;62.39;100182.31;6373128;27;20053;-71
2022/03/07 00:20:21;;;;;;;14.68;7.35;;;;;;;0.11;62.35;100182.13;6371131;28;20051;-71
2022/03/07 00:23:22;;;;;;;15.80;7.70;;;;;;;0.13;61.82;100190.66;6371464;28;20074;-71
2022/03/07 00:26:23;;;;;;;18.65;8.10;;;;;;;-0.02;62.88;100179.75;6354228;28;20525;-71
2022/03/07 00:29:24;;;;;;;13.82;7.38;;;;;;;-0.05;62.81;100176.38;6371412;28;20108;-72
2022/03/07 00:32:25;;;;;;;15.25;7.53;;;;;;;-0.04;62.50;100181.50;6370790;28;20496;-72
2022/03/07 00:35:26;;;;;;;17.05;7.75;;;;;;;-0.04;63.54;100175.53;6370450;28;20406;-72
2022/03/07 00:38:27;;;;;;;12.67;6.23;;;;;;;-0.07;62.74;100178.13;6353445;28;20116;-72
2022/03/07 00:41:28;;;;;;;16.75;7.57;;;;;;;-0.08;63.22;100181.59;6371505;27;20380;-71
2022/03/07 00:44:30;;;;;;;13.88;7.35;;;;;;;-0.03;62.72;100175.50;6353565;28;20114;-72
2022/03/07 00:47:31;;;;;;;16.73;8.73;;;;;;;-0.18;63.72;100172.34;6371617;27;20130;-71
2022/03/07 00:50:32;;;;;;;15.50;8.45;;;;;;;-0.11;63.29;100167.06;6370082;28;20058;-72
2022/03/07 00:53:33;;;;;;;12.13;7.05;;;;;;;-0.14;63.21;100166.28;6371431;27;20099;-71
2022/03/07 00:56:33;;;;;;;14.10;6.93;;;;;;;-0.12;62.64;100172.25;6370401;28;20445;-72
2022/03/07 00:59:34;;;;;;;14.43;7.43;;;;;;;-0.27;63.86;100161.34;6371237;27;20039;-71
2022/03/07 01:02:35;;;;;;;15.13;8.00;;;;;;;-0.29;63.51;100164.78;6353122;28;20077;-71
2022/03/07 01:05:37;;;;;;;14.18;6.95;;;;;;;-0.32;64.26;100168.25;6371408;27;20035;-71
2022/03/07 01:08:39;;;;;;;16.08;7.50;;;;;;;-0.32;64.30;100159.72;6370167;28;20058;-72
2022/03/07 01:11:41;;;;;;;14.95;7.35;;;;;;;-0.51;64.79;100162.53;6371588;27;20482;-72
2022/03/07 01:14:42;;;;;;;14.48;7.28;;;;;;;-0.46;64.42;100153.06;6371678;27;20054;-71
2022/03/07 01:17:43;;;;;;;14.77;7.28;;;;;;;-0.37;64.20;100158.91;6387786;27;20051;-68
2022/03/07 01:20:43;;;;;;;17.17;7.45;;;;;;;-0.35;63.23;100152.91;6372609;27;20074;-67
2022/03/07 01:23:44;;;;;;;16.58;7.63;;;;;;;-0.36;63.80;100158.91;6375972;27;20043;-67
2022/03/07 01:26:46;;;;;;;16.75;7.85;;;;;;;-0.60;64.31;100152.38;6374556;27;20035;-68
2022/03/07 01:29:47;;;;;;;15.52;7.63;;;;;;;-0.49;63.60;100149.69;6375566;27;20043;-68
2022/03/07 01:32:48;;;;;;;17.77;7.53;;;;;;;-0.44;63.67;100150.47;6391878;27;20047;-67
2022/03/07 01:35:48;;;;;;;15.45;7.50;;;;;;;-0.62;64.42;100143.88;6375515;27;20116;-68
2022/03/07 01:38:50;;;;;;;13.35;6.80;;;;;;;-0.56;63.59;100142.94;6374207;27;20043;-68
2022/03/07 01:41:50;;;;;;;12.50;6.50;;;;;;;-0.56;63.37;100135.25;6374120;27;20043;-68
2022/03/07 01:44:51;;;;;;;14.43;7.63;;;;;;;-0.62;62.99;100139.63;6375620;27;20042;-67
2022/03/07 01:47:52;;;;;;;15.88;7.22;;;;;;;-0.77;63.67;100127.00;6375148;27;20054;-68
2022/03/07 01:50:55;;;;;;;12.85;6.25;;;;;;;-0.72;63.24;100134.63;6375326;27;20043;-68
2022/03/07 01:53:56;;;;;;;17.20;6.95;;;;;;;-0.81;64.06;100133.88;6375188;27;20043;-68
2022/03/07 01:56:57;;;;;;;14.68;6.85;;;;;;;-0.74;62.91;100126.97;6356982;27;20555;-68
2022/03/07 01:59:57;;;;;;;14.02;7.72;;;;;;;-0.86;63.61;100142.50;6339817;27;20486;-67
2022/03/07 02:02:58;;;;;;;13.65;7.72;;;;;;;-0.78;63.97;100138.13;6356659;27;20096;-68
2022/03/07 02:06:00;;;;;;;13.75;7.03;;;;;;;-0.88;63.80;100129.72;6375041;27;20110;-67
2022/03/07 02:09:02;;;;;;;11.63;5.88;;;;;;;-0.81;63.13;100131.31;6374817;27;20043;-67
2022/03/07 02:12:03;;;;;;;14.90;6.45;;;;;;;-0.89;64.31;100139.97;6373565;27;20042;-67
2022/03/07 02:15:05;;;;;;;15.23;6.90;;;;;;;-0.91;63.10;100126.34;6356347;27;20039;-68
2022/03/07 02:18:07;;;;;;;17.45;8.00;;;;;;;-1.08;63.85;100118.88;6374690;27;20086;-67
2022/03/07 02:21:16;;;;;;;30.20;11.15;;;;;;;-0.92;63.18;100122.09;6374446;27;20047;-68
2022/03/07 02:24:18;;;;;;;36.58;10.85;;;;;;;-0.91;63.42;100124.59;6373194;27;20505;-68
2022/03/07 02:27:19;;;;;;;61.63;20.58;;;;;;;-1.02;64.22;100117.06;6374384;27;20122;-68
2022/03/07 02:30:20;;;;;;;32.20;11.82;;;;;;;-1.03;63.73;100123.06;6356059;27;20047;-68
2022/03/07 02:33:21;;;;;;;26.42;12.45;;;;;;;-0.91;63.50;100131.47;6373383;27;20046;-68
2022/03/07 02:36:23;;;;;;;19.50;8.15;;;;;;;-1.03;63.82;100129.88;6373322;27;20122;-67
2022/03/07 02:39:24;;;;;;;14.43;5.80;;;;;;;-1.03;62.99;100127.31;6373262;27;20118;-68
2022/03/07 02:42:25;;;;;;;15.13;8.32;;;;;;;-1.19;64.32;100133.50;6374229;27;20063;-68
2022/03/07 02:45:25;;;;;;;25.33;11.73;;;;;;;-1.02;62.81;100140.13;6373083;27;20043;-68
2022/03/07 02:48:27;;;;;;;18.77;9.20;;;;;;;-1.09;63.01;100135.09;6374085;27;20176;-68
2022/03/07 02:51:28;;;;;;;14.95;8.23;;;;;;;-1.10;63.09;100133.41;6374250;27;20046;-68
2022/03/07 02:54:29;;;;;;;12.52;6.55;;;;;;;-1.14;63.62;100137.72;6372677;27;20077;-68
2022/03/07 02:57:29;;;;;;;13.63;6.45;;;;;;;-1.15;62.80;100132.59;6373666;27;20118;-68
2022/03/07 03:00:31;;;;;;;15.18;7.13;;;;;;;-1.02;62.94;100140.13;6355163;27;20092;-67
2022/03/07 03:03:32;;;;;;;12.75;6.60;;;;;;;-1.11;62.70;100131.69;6372698;27;20043;-68
2022/03/07 03:06:33;;;;;;;17.35;7.70;;;;;;;-1.00;61.90;100136.72;6372773;27;20510;-67
2022/03/07 03:09:33;;;;;;;14.32;5.82;;;;;;;-1.02;61.54;100139.28;6371996;27;20051;-68
2022/03/07 03:12:34;;;;;;;15.25;7.07;;;;;;;-1.15;62.81;100138.59;6372014;27;20054;-68
2022/03/07 03:15:35;;;;;;;17.05;7.35;;;;;;;-1.10;62.39;100141.09;6372980;27;20039;-67
2022/03/07 03:18:36;;;;;;;12.88;6.53;;;;;;;-0.94;61.89;100136.63;6371879;27;20482;-67
2022/03/07 03:21:37;;;;;;;12.68;5.60;;;;;;;-1.20;62.16;100140.34;6372796;27;20046;-67
2022/03/07 03:24:38;;;;;;;12.88;6.25;;;;;;;-1.04;61.00;100139.28;6371836;27;20035;-67
2022/03/07 03:27:39;;;;;;;12.13;5.65;;;;;;;-1.07;61.41;100141.03;6372818;27;20554;-67
2022/03/07 03:30:40;;;;;;;11.98;5.28;;;;;;;-1.02;61.18;100136.72;6371667;27;20474;-68
2022/03/07 03:33:42;;;;;;;11.75;6.07;;;;;;;-1.06;61.39;100128.22;6372681;27;20039;-67
2022/03/07 03:36:43;;;;;;;15.35;7.15;;;;;;;-1.00;59.29;100136.72;6372668;27;20395;-68
2022/03/07 03:39:44;;;;;;;10.02;6.22;;;;;;;-1.02;59.73;100140.13;6372592;27;20035;-68
2022/03/07 03:42:46;;;;;;;10.10;4.85;;;;;;;-0.93;59.90;100138.31;6371082;27;20722;-71
2022/03/07 03:45:47;;;;;;;8.65;5.38;;;;;;;-0.98;59.27;100135.81;6371325;27;20036;-72
2022/03/07 03:48:48;;;;;;;12.55;5.22;;;;;;;-0.99;58.68;100133.25;6372314;27;20130;-72
2022/03/07 03:51:48;;;;;;;10.70;5.72;;;;;;;-1.06;59.25;100143.59;6372285;27;20114;-72
2022/03/07 03:54:49;;;;;;;10.38;4.90;;;;;;;-1.12;59.38;100135.97;6388132;27;20047;-67
2022/03/07 03:57:50;;;;;;;11.40;5.70;;;;;;;-1.05;59.01;100129.06;6371091;27;20046;-68
2022/03/07 04:00:51;;;;;;;13.13;6.38;;;;;;;-0.98;58.46;100132.41;6371038;27;20039;-68
2022/03/07 04:03:51;;;;;;;10.85;5.05;;;;;;;-1.06;59.14;100129.94;6370837;27;20380;-69
2022/03/07 04:06:52;;;;;;;9.60;5.35;;;;;;;-0.97;58.62;100136.66;6372191;27;20050;-67
2022/03/07 04:09:53;;;;;;;12.00;5.65;;;;;;;-1.10;58.33;100141.09;6371938;27;20487;-68
2022/03/07 04:12:54;;;;;;;8.73;4.60;;;;;;;-1.07;57.46;100144.47;6370839;27;20043;-68
2022/03/07 04:15:54;;;;;;;14.45;6.65;;;;;;;-1.10;58.01;100147.06;6370720;27;20047;-69
2022/03/07 04:18:55;;;;;;;18.42;6.32;;;;;;;-1.02;57.03;100144.41;6370659;27;20039;-68
2022/03/07 04:21:56;;;;;;;13.13;5.78;;;;;;;-1.17;58.18;100142.00;6371738;27;20122;-68
2022/03/07 04:24:57;;;;;;;15.45;6.32;;;;;;;-1.00;57.57;100145.22;6371880;28;20099;-68
2022/03/07 04:27:57;;;;;;;16.88;5.95;;;;;;;-1.06;57.14;100146.16;6370605;28;20039;-67
2022/03/07 04:30:58;;;;;;;9.05;4.95;;;;;;;-1.05;57.79;100149.56;6370472;28;20122;-67
2022/03/07 04:33:59;;;;;;;11.32;5.05;;;;;;;-1.12;57.25;100146.22;6370833;28;20460;-67
2022/03/07 04:37:00;;;;;;;10.90;5.82;;;;;;;-1.10;56.39;100144.50;6353924;28;20122;-67
2022/03/07 04:40:02;;;;;;;9.27;4.20;;;;;;;-1.09;56.73;100147.88;6372242;27;20046;-67
2022/03/07 04:43:03;;;;;;;;;;;;;;;-1.10;57.30;100153.88;6371187;28;20107;-68
2022/03/07 04:46:07;;;;;;;9.27;4.57;;;;;;;-1.16;56.49;100159.09;6371681;27;19923;-72
2022/03/07 04:49:10;;;;;;;10.07;5.20;;;;;;;-1.28;57.14;100153.22;6371616;27;20392;-71
2022/03/07 04:52:11;;;;;;;11.68;5.40;;;;;;;-1.29;57.53;100153.25;6353684;28;20063;-71
2022/03/07 04:55:13;;;;;;;8.38;5.15;;;;;;;-1.25;57.69;100148.06;6371155;27;20456;-71
2022/03/07 04:58:14;;;;;;;9.20;4.35;;;;;;;-1.32;57.29;100146.47;6377294;27;20035;-71
2022/03/07 05:01:15;;;;;;;9.18;5.38;;;;;;;-1.42;57.98;100137.19;6376852;27;20042;-71
2022/03/07 05:04:16;;;;;;;13.27;5.22;;;;;;;-1.40;57.98;100140.59;6375501;27;20376;-71
2022/03/07 05:07:17;;;;;;;10.43;4.90;;;;;;;-1.36;58.20;100149.06;6358599;27;20070;-71
2022/03/07 05:10:20;;;;;;;9.40;5.28;;;;;;;-1.40;58.02;100134.59;6376823;27;20391;-72
2022/03/07 05:13:20;;;;;;;10.53;5.70;;;;;;;-1.45;58.50;100134.66;6375625;27;20035;-71
2022/03/07 05:16:21;;;;;;;7.82;4.53;;;;;;;-1.44;57.77;100144.03;6375555;27;20765;-72
2022/03/07 05:19:23;;;;;;;9.65;5.03;;;;;;;-1.39;58.35;100137.13;6358340;27;20114;-72
2022/03/07 05:22:25;;;;;;;9.57;4.72;;;;;;;-1.47;57.79;100139.78;6375186;27;20047;-71
2022/03/07 05:25:25;;;;;;;9.60;5.22;;;;;;;-1.47;58.64;100144.91;6341129;27;20111;-72
2022/03/07 05:28:26;;;;;;;12.63;5.93;;;;;;;-1.48;58.64;100140.66;6375141;27;20430;-72
2022/03/07 05:31:27;;;;;;;12.10;5.47;;;;;;;-1.32;57.42;100145.59;6368976;27;20550;-72
2022/03/07 05:34:28;;;;;;;13.00;5.70;;;;;;;-1.50;57.61;100139.81;6331786;28;20567;-71
2022/03/07 05:37:29;;;;;;;10.95;5.82;;;;;;;-1.45;57.57;100147.44;6349892;28;20459;-71
2022/03/07 05:40:30;;;;;;;12.50;5.40;;;;;;;-1.32;57.21;100149.03;6353639;27;20128;-72
2022/03/07 05:43:31;;;;;;;12.30;5.72;;;;;;;-1.37;56.57;100148.22;6331556;28;20483;-72
2022/03/07 05:46:32;;;;;;;10.02;6.07;;;;;;;-1.35;56.64;100146.47;6350122;28;20043;-72
2022/03/07 05:49:33;;;;;;;10.50;5.40;;;;;;;-1.31;56.71;100148.16;6348339;28;20141;-72
2022/03/07 05:52:34;;;;;;;9.30;5.78;;;;;;;-1.35;56.57;100145.66;6361045;27;20031;-72
2022/03/07 05:55:35;;;;;;;8.43;5.65;;;;;;;-1.24;56.11;100149.75;6331508;28;20050;-72
2022/03/07 05:58:36;;;;;;;12.65;6.18;;;;;;;-1.15;55.96;100141.16;6348246;28;20044;-72
2022/03/07 06:01:37;;;;;;;11.65;6.07;;;;;;;-1.22;55.76;100152.31;6350565;27;20093;-72
2022/03/07 06:04:38;;;;;;;9.68;5.55;;;;;;;-1.28;56.13;100152.38;6373600;27;20035;-71
2022/03/07 06:07:39;;;;;;;15.10;6.07;;;;;;;-1.12;55.85;100138.53;6373246;27;20050;-72
2022/03/07 06:10:39;;;;;;;11.82;5.15;;;;;;;-1.29;55.62;100145.56;6349014;27;20043;-71
2022/03/07 06:13:40;;;;;;;9.68;5.53;;;;;;;-1.18;55.37;100148.00;6364241;27;20050;-71
2022/03/07 06:16:41;;;;;;;13.88;6.15;;;;;;;-1.22;55.52;100149.75;6374149;27;20042;-71
2022/03/07 06:19:42;;;;;;;13.68;5.65;;;;;;;-1.03;55.12;100166.63;6357071;27;20043;-71
2022/03/07 06:22:43;;;;;;;12.93;6.90;;;;;;;-1.06;55.38;100161.50;6344177;28;20039;-71
2022/03/07 06:25:44;;;;;;;11.80;6.00;;;;;;;-0.90;53.93;100164.75;6331641;28;20039;-71
2022/03/07 06:28:45;;;;;;;11.10;5.90;;;;;;;-0.96;54.21;100166.53;6348292;28;20043;-71
2022/03/07 06:31:45;;;;;;;14.95;6.15;;;;;;;-0.86;53.87;100158.72;6353058;27;20035;-68
2022/03/07 06:34:46;;;;;;;11.02;4.93;;;;;;;-0.75;53.86;100165.44;6340083;28;20043;-67
2022/03/07 06:37:52;;;;;;;10.32;6.55;;;;;;;-0.62;53.18;100161.81;6352054;27;20047;-68
2022/03/07 06:40:53;;;;;;;11.70;6.40;;;;;;;-0.68;53.57;100160.22;6374620;27;20071;-68
2022/03/07 06:43:53;;;;;;;13.45;6.68;;;;;;;-0.41;52.98;100164.09;6374386;27;20039;-67
2022/03/07 06:46:54;;;;;;;14.40;7.15;;;;;;;-0.39;52.21;100168.34;6366163;27;20112;-67
2022/03/07 06:49:57;;;;;;;14.38;7.05;;;;;;;-0.25;51.88;100167.28;6354482;27;20066;-68
2022/03/07 06:52:58;;;;;;;;;;;;;;;-0.27;52.29;100169.03;6358950;27;20065;-68
2022/03/07 06:55:59;;;;;;;10.27;5.38;;;;;;;-0.05;52.23;100174.66;6359068;27;19927;-68
2022/03/07 06:58:59;;;;;;;20.33;6.93;;;;;;;0.12;51.37;100171.00;6369118;27;20118;-68
2022/03/07 07:02:00;;;;;;;17.25;6.80;;;;;;;0.07;51.37;100175.38;6348376;27;20035;-67
2022/03/07 07:05:02;;;;;;;14.38;6.72;;;;;;;0.18;51.07;100176.84;6329693;28;20418;-67
2022/03/07 07:08:04;;;;;;;10.32;5.40;;;;;;;0.31;50.50;100180.09;6330019;28;20471;-67
2022/03/07 07:11:05;;;;;;;14.55;7.75;;;;;;;0.42;50.64;100182.47;6335942;27;20454;-68
2022/03/07 07:14:06;;;;;;;7.32;4.25;;;;;;;0.54;50.18;100182.25;6359745;27;20387;-68
2022/03/07 07:17:07;;;;;;;10.30;5.72;;;;;;;0.63;48.79;100188.94;6348012;27;20110;-67
2022/03/07 07:20:13;;;;;;;17.02;8.05;;;;;;;0.86;48.98;100190.22;6345922;28;20038;-68
2022/03/07 07:23:13;;;;;;;13.80;7.35;;;;;;;0.83;48.98;100191.16;6362257;27;20039;-68
2022/03/07 07:26:14;;;;;;;12.65;5.35;;;;;;;1.03;47.67;100198.47;6362758;27;20532;-67
2022/03/07 07:29:15;;;;;;;18.02;7.32;;;;;;;1.23;48.73;100192.09;6350221;27;20122;-68
2022/03/07 07:32:16;;;;;;;16.85;7.05;;;;;;;1.19;47.85;100181.00;6345251;28;20039;-68
2022/03/07 07:35:17;;;;;;;17.35;8.07;;;;;;;1.22;47.60;100178.41;6344738;28;20126;-67
2022/03/07 07:38:19;;;;;;;14.80;8.02;;;;;;;1.06;47.57;100167.56;6346755;28;20077;-68
2022/03/07 07:41:20;;;;;;;;;;;;;;;0.99;48.09;100178.88;6345863;28;20075;-67
2022/03/07 07:44:21;;;;;;;18.45;7.97;;;;;;;1.31;47.63;100182.50;6346534;28;19924;-68
2022/03/07 07:47:22;;;;;;;16.30;8.45;;;;;;;1.43;46.75;100195.09;6345440;28;20403;-67
2022/03/07 07:50:23;;;;;;;13.73;7.20;;;;;;;1.45;46.94;100195.91;6346316;28;20055;-67
2022/03/07 07:53:23;;;;;;;15.98;8.00;;;;;;;1.54;47.04;100194.84;6346551;28;20116;-68
2022/03/07 07:56:24;;;;;;;14.45;8.13;;;;;;;1.41;46.24;100184.00;6346386;28;20048;-68
2022/03/07 07:59:25;;;;;;;15.60;7.28;;;;;;;1.60;45.85;100197.28;6328130;28;20055;-68
2022/03/07 08:02:26;;;;;;;13.20;5.63;;;;;;;1.48;45.21;100188.09;6345070;28;20046;-67
2022/03/07 08:05:27;;;;;;;9.57;5.65;;;;;;;1.60;44.73;100192.16;6346073;28;20073;-68
2022/03/07 08:08:28;;;;;;;13.13;6.45;;;;;;;1.94;43.63;100192.25;6347362;27;20499;-68
2022/03/07 08:11:29;;;;;;;17.17;8.80;;;;;;;2.06;44.69;100188.53;6328484;28;20051;-67
2022/03/07 08:14:30;;;;;;;18.23;8.85;;;;;;;2.13;44.74;100202.94;6361002;27;20062;-67
2022/03/07 08:17:31;;;;;;;17.00;8.75;;;;;;;2.33;44.43;100193.91;6338239;27;20036;-67
2022/03/07 08:20:33;;;;;;;16.03;7.10;;;;;;;2.72;44.10;100199.75;6350748;27;20040;-68
2022/03/07 08:23:34;;;;;;;15.77;9.32;;;;;;;2.68;43.76;100199.84;6346180;28;20517;-67
2022/03/07 08:26:34;;;;;;;17.88;9.52;;;;;;;2.37;43.56;100200.66;6345856;28;20044;-66
2022/03/07 08:29:35;;;;;;;24.02;10.63;;;;;;;2.35;44.28;100210.16;6351698;27;20042;-67
2022/03/07 08:32:37;;;;;;;20.75;9.82;;;;;;;2.36;43.62;100212.69;6365205;27;20487;-67
2022/03/07 08:35:38;;;;;;;14.82;9.20;;;;;;;2.35;41.88;100215.31;6361580;27;20038;-67
2022/03/07 08:38:39;;;;;;;25.63;10.68;;;;;;;2.22;41.94;100215.59;6357433;27;20039;-67
2022/03/07 08:41:39;;;;;;;17.50;9.75;;;;;;;2.48;41.92;100213.28;6365822;27;20050;-67
2022/03/07 08:44:40;;;;;;;20.90;10.13;;;;;;;2.80;41.43;100210.72;6351041;28;20036;-67
2022/03/07 08:47:41;;;;;;;24.42;11.95;;;;;;;3.18;41.31;100201.06;6349771;27;20558;-69
2022/03/07 08:50:46;;;;;;;20.48;10.98;;;;;;;2.93;42.43;100211.22;6366013;27;20126;-68
2022/03/07 08:53:47;;;;;;;25.45;10.15;;;;;;;3.02;41.43;100210.13;6352565;27;20050;-68
2022/03/07 08:56:48;;;;;;;19.95;10.90;;;;;;;2.76;42.44;100211.69;6345790;27;20047;-68
2022/03/07 08:59:49;;;;;;;25.88;10.57;;;;;;;2.89;40.83;100204.47;6364789;27;20479;-67
2022/03/07 09:02:49;;;;;;;16.80;9.23;;;;;;;3.03;40.07;100201.50;6375107;27;20054;-67
2022/03/07 09:05:50;;;;;;;20.50;10.88;;;;;;;3.59;39.89;100203.34;6362272;27;20043;-67
2022/03/07 09:08:52;;;;;;;18.58;9.75;;;;;;;3.19;38.83;100195.03;6358160;27;20055;-68
2022/03/07 09:11:53;;;;;;;18.02;9.95;;;;;;;3.52;39.03;100210.44;6365789;27;20038;-67
2022/03/07 09:14:58;;;;;;;20.05;10.13;;;;;;;3.75;38.61;100198.59;6364023;27;20844;-67
2022/03/07 09:18:00;;;;;;;16.25;8.15;;;;;;;3.63;38.31;100194.63;6368496;27;20031;-68
2022/03/07 09:21:02;;;;;;;21.08;10.10;;;;;;;3.65;38.19;100200.59;6360555;27;20067;-68
2022/03/07 09:24:04;;;;;;;20.75;11.35;;;;;;;3.32;37.65;100205.84;6364479;27;20069;-67
2022/03/07 09:27:05;;;;;;;21.67;11.00;;;;;;;3.49;37.58;100204.50;6374362;27;20043;-67
2022/03/07 09:30:07;;;;;;;19.63;10.38;;;;;;;3.63;36.81;100204.94;6356240;27;20302;-67
2022/03/07 09:33:08;;;;;;;16.48;8.32;;;;;;;3.34;36.81;100198.91;6375413;27;20046;-67
2022/03/07 09:36:09;;;;;;;14.60;8.05;;;;;;;2.97;37.44;100201.69;6375204;27;20443;-67
2022/03/07 09:39:10;;;;;;;22.00;9.98;;;;;;;2.89;37.88;100206.19;6375077;27;20047;-67
2022/03/07 09:42:11;;;;;;;20.73;10.05;;;;;;;3.21;37.64;100208.75;6356396;27;20384;-68
2022/03/07 09:45:13;;;;;;;15.05;7.88;;;;;;;3.25;36.29;100204.31;6356556;27;20145;-67
2022/03/07 09:48:13;;;;;;;20.23;10.40;;;;;;;3.82;35.42;100202.66;6374852;27;20511;-67
2022/03/07 09:51:14;;;;;;;22.52;9.95;;;;;;;3.50;35.37;100207.06;6374831;27;20043;-71
2022/03/07 09:54:16;;;;;;;19.40;10.05;;;;;;;3.70;35.01;100206.44;6390968;27;20434;-72
2022/03/07 09:57:17;;;;;;;17.90;9.95;;;;;;;3.40;35.04;100203.06;6374714;27;20114;-71
2022/03/07 10:00:19;;;;;;;16.05;9.20;;;;;;;3.50;34.87;100201.91;6374509;27;20043;-71
2022/03/07 10:03:20;;;;;;;17.70;9.83;;;;;;;3.86;34.70;100199.09;6374738;27;20043;-71
2022/03/07 10:06:21;;;;;;;19.63;10.25;;;;;;;4.02;35.33;100195.13;6374376;27;20031;-71
2022/03/07 10:09:24;;;;;;;20.52;9.98;;;;;;;3.44;35.64;100194.34;6356094;27;20043;-71
2022/03/07 10:12:28;;;;;;;19.73;11.65;;;;;;;3.47;36.64;100204.56;6374351;27;20039;-72
2022/03/07 10:15:29;;;;;;;23.38;11.43;;;;;;;3.36;36.85;100199.72;6374195;27;20047;-72
2022/03/07 10:18:30;;;;;;;20.25;11.45;;;;;;;3.59;35.79;100196.44;6374125;27;20074;-72
2022/03/07 10:21:31;;;;;;;20.80;10.80;;;;;;;3.20;35.99;100195.88;6372921;27;20471;-71
2022/03/07 10:24:34;;;;;;;17.95;10.40;;;;;;;2.87;36.53;100202.81;6374022;27;20035;-71
2022/03/07 10:27:38;;;;;;;19.35;10.70;;;;;;;2.99;37.25;100195.59;6373974;27;20094;-72
2022/03/07 10:30:40;;;;;;;20.52;10.93;;;;;;;3.06;38.02;100204.00;6367292;27;20069;-71
2022/03/07 10:33:41;;;;;;;20.03;11.00;;;;;;;3.19;37.09;100207.94;6358042;27;20038;-71
2022/03/07 10:36:46;;;;;;;18.65;10.18;;;;;;;2.97;37.25;100204.25;6364540;27;20478;-71
2022/03/07 10:39:52;;;;;;;17.08;8.68;;;;;;;2.90;37.41;100195.81;6368083;27;20035;-72
2022/03/07 10:42:54;;;;;;;20.85;10.90;;;;;;;3.03;36.63;100192.03;6373866;27;20046;-72
2022/03/07 10:45:58;;;;;;;15.75;10.13;;;;;;;3.17;37.31;100191.66;6373913;27;20046;-72
2022/03/07 10:48:59;;;;;;;18.33;10.73;;;;;;;2.88;37.44;100189.88;6349131;27;20043;-72
2022/03/07 10:52:04;;;;;;;21.07;10.80;;;;;;;2.94;36.45;100179.38;6346907;28;20054;-71
2022/03/07 10:55:11;;;;;;;20.75;11.05;;;;;;;2.81;37.09;100186.63;6346233;28;20810;-71
2022/03/07 10:58:13;;;;;;;19.63;10.60;;;;;;;3.21;36.49;100182.09;6346458;28;20487;-72
2022/03/07 11:01:26;;;;;;;23.63;10.15;;;;;;;2.89;36.65;100181.25;6361480;27;20039;-71
2022/03/07 11:04:27;;;;;;;19.20;10.52;;;;;;;3.06;37.41;100182.53;6376164;27;20031;-71
2022/03/07 11:07:28;;;;;;;20.90;10.98;;;;;;;3.19;37.79;100176.13;6370083;27;20120;-72
2022/03/07 11:10:29;;;;;;;20.92;11.82;;;;;;;3.53;37.53;100177.72;6373079;27;20050;-71
2022/03/07 11:13:32;;;;;;;19.55;11.02;;;;;;;3.74;36.23;100169.31;6358519;27;20040;-72
2022/03/07 11:16:34;;;;;;;20.13;9.93;;;;;;;3.50;37.27;100172.66;6329502;28;20040;-71
2022/03/07 11:19:35;;;;;;;;;;;;;;;2.76;38.82;100178.19;6347785;28;20050;-71
2022/03/07 11:22:36;;;;;;;33.90;13.18;;;;;;;2.90;38.69;100182.94;6348315;27;19920;-71
2022/03/07 11:25:39;;;;;;;20.55;12.00;;;;;;;2.88;39.68;100165.84;6372699;27;20039;-71
2022/03/07 11:28:44;;;;;;;26.55;12.82;;;;;;;3.03;39.59;100168.00;6355119;27;20046;-71
2022/03/07 11:31:46;;;;;;;23.08;12.32;;;;;;;2.68;38.93;100161.22;6371354;27;20039;-71
2022/03/07 11:35:06;;;;;;;25.10;11.02;;;;;;;2.75;39.10;100147.28;6372222;27;20039;-71
2022/03/07 11:38:35;;;;;;;17.73;9.90;;;;;;;3.13;38.65;100143.66;6370494;27;20478;-72
2022/03/07 11:41:38;;;;;;;18.02;9.80;;;;;;;2.89;39.12;100152.91;6356563;27;20114;-71
2022/03/07 11:44:40;;;;;;;24.00;13.20;;;;;;;3.03;40.02;100147.38;6346750;28;20122;-71
2022/03/07 11:47:41;;;;;;;24.83;12.55;;;;;;;2.82;40.18;100156.53;6345505;28;20445;-71
2022/03/07 11:50:42;;;;;;;23.40;11.90;;;;;;;2.96;41.39;100149.25;6346477;28;20055;-71
2022/03/07 11:53:45;;;;;;;23.60;13.70;;;;;;;3.08;40.21;100153.22;6345632;28;20051;-71
2022/03/07 11:56:46;;;;;;;21.98;12.52;;;;;;;2.49;40.66;100147.97;6345247;28;20039;-71
2022/03/07 11:59:47;;;;;;;23.58;13.13;;;;;;;2.63;40.86;100151.03;6346255;27;20517;-72
2022/03/07 12:02:58;;;;;;;23.65;11.57;;;;;;;2.46;41.27;100140.34;6356559;27;20035;-71
2022/03/07 12:06:06;;;;;;;24.35;12.40;;;;;;;2.53;40.92;100139.28;6357158;27;20115;-71
2022/03/07 12:09:08;;;;;;;22.38;11.43;;;;;;;2.66;41.94;100138.09;6351526;27;20048;-67
2022/03/07 12:12:14;;;;;;;22.88;12.98;;;;;;;3.18;40.74;100140.94;6365396;27;20047;-67
2022/03/07 12:15:15;;;;;;;24.92;12.88;;;;;;;3.23;39.72;100134.75;6350400;27;20047;-67
2022/03/07 12:18:17;;;;;;;26.15;12.73;;;;;;;2.86;39.92;100129.78;6367460;27;20032;-68
2022/03/07 12:21:25;;;;;;;24.60;13.25;;;;;;;2.98;39.82;100132.00;6362535;27;20056;-68
2022/03/07 12:24:26;;;;;;;27.55;13.57;;;;;;;2.69;39.76;100130.25;6346255;28;20055;-68
2022/03/07 12:27:27;;;;;;;27.60;12.63;;;;;;;2.64;39.65;100132.13;6344841;28;20046;-68
2022/03/07 12:30:29;;;;;;;32.47;15.52;;;;;;;2.63;39.18;100133.00;6327711;28;20463;-68
2022/03/07 12:33:30;;;;;;;23.13;12.85;;;;;;;2.62;39.18;100133.91;6344857;28;20081;-68
2022/03/07 12:36:32;;;;;;;26.85;13.18;;;;;;;2.52;39.00;100137.63;6349000;28;20067;-68
2022/03/07 12:39:51;;;;;;;25.95;14.20;;;;;;;2.52;39.82;100130.72;6370136;28;20035;-68
2022/03/07 12:42:52;;;;;;;23.17;12.98;;;;;;;2.45;38.61;100136.06;6370281;28;20398;-67
2022/03/07 12:45:57;;;;;;;23.70;13.38;;;;;;;2.22;39.26;100124.63;6370315;28;20046;-68
2022/03/07 12:48:58;;;;;;;18.45;11.18;;;;;;;2.19;39.16;100130.72;6369896;28;20116;-69
2022/03/07 12:52:06;;;;;;;22.23;13.50;;;;;;;2.12;39.54;100141.19;6370428;28;20138;-69
2022/03/07 12:55:10;;;;;;;23.20;12.40;;;;;;;2.20;39.88;100136.69;6371227;28;20112;-67
2022/03/07 12:58:18;;;;;;;23.70;13.27;;;;;;;2.14;39.50;100135.16;6349608;28;20058;-68
2022/03/07 13:01:19;;;;;;;20.88;12.35;;;;;;;1.85;39.79;100135.84;6345577;28;20051;-67
2022/03/07 13:04:25;;;;;;;25.52;13.30;;;;;;;2.26;39.88;100140.84;6327731;28;20042;-67
2022/03/07 13:07:26;;;;;;;20.27;12.25;;;;;;;1.94;39.76;100130.47;6345592;28;20043;-68
2022/03/07 13:10:29;;;;;;;27.63;12.50;;;;;;;1.83;39.94;100135.03;6345676;28;20414;-68
2022/03/07 13:13:40;;;;;;;29.58;14.40;;;;;;;1.87;40.09;100136.63;6344449;28;20035;-68
2022/03/07 13:16:41;;;;;;;17.27;8.68;;;;;;;1.75;39.29;100134.34;6347173;28;20040;-68
2022/03/07 13:19:46;;;;;;;23.90;10.88;;;;;;;1.76;39.09;100139.47;6350039;28;20043;-68
2022/03/07 13:22:47;;;;;;;20.02;11.65;;;;;;;1.64;40.11;100137.19;6349131;28;20036;-68
2022/03/07 13:25:49;;;;;;;20.75;11.13;;;;;;;1.68;39.94;100140.53;6350196;28;20054;-67
2022/03/07 13:29:08;;;;;;;18.30;10.93;;;;;;;1.52;40.26;100138.31;6348801;28;20404;-67
2022/03/07 13:32:12;;;;;;;17.50;9.75;;;;;;;1.68;39.94;100140.53;6350024;28;20043;-67
2022/03/07 13:35:27;;;;;;;21.52;12.98;;;;;;;2.06;39.51;100141.34;6350024;28;20044;-68
2022/03/07 13:38:35;;;;;;;16.98;10.55;;;;;;;1.73;39.90;100143.84;6348480;28;20036;-68
2022/03/07 13:41:46;;;;;;;18.70;9.73;;;;;;;1.38;40.28;100140.31;6348616;28;20178;-67
2022/03/07 13:44:59;;;;;;;22.15;11.68;;;;;;;1.74;38.55;100142.97;6348565;28;20039;-68
2022/03/07 13:48:03;;;;;;;17.13;10.90;;;;;;;1.46;38.78;100145.31;6349519;28;20399;-67
2022/03/07 13:51:04;;;;;;;20.65;10.40;;;;;;;1.48;38.64;100143.56;6349585;28;20400;-67
2022/03/07 13:54:05;;;;;;;20.77;10.13;;;;;;;1.51;37.95;100136.63;6348428;28;20050;-68
2022/03/07 13:57:07;;;;;;;20.75;11.38;;;;;;;1.52;38.32;100140.03;6349432;28;20122;-67
2022/03/07 14:00:22;;;;;;;25.95;14.25;;;;;;;1.75;38.09;100142.06;6347981;28;20541;-67